Time;durP1;ratioP1;P1;durP2;ratioP2;P2;SDS_P1;SDS_P2;PMS_P1;PMS_P2;Temp;Humidity;BMP_temperature;BMP_pressure;BME280_temperature;BME280_humidity;BME280_pressure;Samples;Min_cycle;Max_cycle;Signal;HPM_P1;HPM_P2
2023/06/30 00:01:50;;;;;;;1.90;1.23;;;;;;;20.41;64.98;99633.47;5092363;28;20040;-78
2023/06/30 00:04:18;;;;;;;1.77;1.10;;;;;;;20.61;65.49;99680.56;5095639;28;20042;-77
2023/06/30 00:06:45;;;;;;;1.95;0.82;;;;;;;20.43;65.77;99665.53;5091708;28;20420;-78
2023/06/30 00:09:10;;;;;;;2.42;1.17;;;;;;;20.43;65.56;99666.38;5092227;28;20031;-78
2023/06/30 00:11:38;;;;;;;1.60;1.10;;;;;;;20.43;65.66;99679.75;5093022;28;20107;-78
2023/06/30 00:14:04;;;;;;;0.60;0.60;;;;;;;20.21;66.04;99659.53;5099395;28;20036;-78
2023/06/30 00:16:31;;;;;;;1.08;0.85;;;;;;;20.22;66.07;99660.41;5089344;28;20550;-78
2023/06/30 00:18:57;;;;;;;1.13;0.88;;;;;;;20.37;66.45;99686.34;5092487;28;20032;-78
2023/06/30 00:21:23;;;;;;;2.08;1.17;;;;;;;20.38;66.69;99676.50;5096982;28;20031;-77
2023/06/30 00:23:48;;;;;;;2.67;1.25;;;;;;;20.45;66.28;99674.31;5080329;28;20141;-78
2023/06/30 00:26:14;;;;;;;1.23;1.08;;;;;;;20.29;66.94;99644.88;5095669;27;20481;-78
2023/06/30 00:28:39;;;;;;;1.95;1.20;;;;;;;20.31;67.06;99657.22;5091396;28;20036;-77
2023/06/30 00:31:05;;;;;;;2.28;1.55;;;;;;;20.27;67.25;99652.97;5092341;28;20054;-77
2023/06/30 00:33:30;;;;;;;1.42;0.80;;;;;;;20.16;67.65;99645.56;5091980;28;20101;-79
2023/06/30 00:35:56;;;;;;;1.75;0.95;;;;;;;20.31;67.62;99667.06;5072468;28;20067;-78
2023/06/30 00:38:21;;;;;;;1.13;1.00;;;;;;;20.09;67.60;99637.94;5090260;28;20038;-78
2023/06/30 00:40:46;;;;;;;2.50;1.20;;;;;;;20.00;67.63;99636.63;5092194;28;20035;-78
2023/06/30 00:43:12;;;;;;;1.35;1.00;;;;;;;19.97;67.73;99647.50;5107854;28;20432;-79
2023/06/30 00:45:37;;;;;;;4.75;0.82;;;;;;;19.83;68.21;99632.19;5094741;28;20091;-78
2023/06/30 00:48:03;;;;;;;1.33;1.20;;;;;;;19.90;68.47;99655.00;5104246;28;20062;-78
2023/06/30 00:50:29;;;;;;;2.63;1.60;;;;;;;19.72;68.91;99635.41;5091262;28;20063;-77
2023/06/30 00:52:55;;;;;;;1.17;0.93;;;;;;;19.76;68.85;99663.75;5090946;28;20024;-78
2023/06/30 00:55:21;;;;;;;1.13;1.02;;;;;;;19.92;68.60;99679.03;5090630;28;20020;-77
2023/06/30 00:57:46;;;;;;;1.85;1.08;;;;;;;19.80;69.34;99667.16;5090563;28;20111;-79
2023/06/30 01:00:12;;;;;;;2.15;1.60;;;;;;;19.81;68.35;99667.06;5106638;28;20024;-78
2023/06/30 01:02:54;;;;;;;2.38;1.33;;;;;;;19.27;68.85;99651.13;5091595;28;20047;-78
2023/06/30 01:05:30;;;;;;;1.75;1.17;;;;;;;19.44;68.27;99684.19;5071779;28;20032;-78
2023/06/30 01:08:23;;;;;;;2.40;1.40;;;;;;;19.35;68.76;99656.09;5097101;28;20096;-78
2023/06/30 01:10:50;;;;;;;2.15;1.13;;;;;;;19.39;68.82;99656.81;5110324;28;20054;-78
2023/06/30 01:13:17;;;;;;;1.38;1.23;;;;;;;19.33;69.08;99637.44;5109226;28;20043;-79
2023/06/30 01:15:44;;;;;;;3.38;1.48;;;;;;;19.63;67.99;99682.28;5090429;28;20553;-77
2023/06/30 01:18:11;;;;;;;2.35;1.30;;;;;;;19.47;68.02;99678.66;5090939;28;20038;-77
2023/06/30 01:20:40;;;;;;;4.43;2.65;;;;;;;19.38;68.44;99682.66;5090361;28;20069;-78
2023/06/30 01:23:23;;;;;;;1.88;1.23;;;;;;;19.30;68.89;99691.09;5099426;28;20088;-78
2023/06/30 01:25:50;;;;;;;6.18;1.50;;;;;;;18.83;70.09;99662.25;5109865;28;20070;-78
2023/06/30 01:28:16;;;;;;;2.55;1.88;;;;;;;18.67;70.28;99639.91;5101632;28;20024;-78
2023/06/30 01:30:42;;;;;;;2.40;1.25;;;;;;;18.82;70.56;99659.66;5093707;28;20053;-78
2023/06/30 01:33:07;;;;;;;1.55;1.33;;;;;;;18.92;71.00;99677.88;5094060;28;20036;-78
2023/06/30 01:35:34;;;;;;;1.80;1.30;;;;;;;18.94;70.64;99667.97;5109912;28;20035;-78
2023/06/30 01:38:02;;;;;;;1.52;1.10;;;;;;;18.81;71.40;99664.13;5110131;28;20081;-78
2023/06/30 01:40:27;;;;;;;2.03;1.30;;;;;;;18.73;71.57;99660.97;5109275;28;20106;-78
2023/06/30 01:42:56;;;;;;;2.03;1.33;;;;;;;18.61;72.18;99649.06;5110335;28;20118;-77
2023/06/30 01:45:26;;;;;;;1.88;1.55;;;;;;;18.79;72.39;99668.69;5108228;28;20097;-78
2023/06/30 01:47:53;;;;;;;2.15;1.67;;;;;;;18.78;71.88;99654.47;5106481;28;20035;-78
2023/06/30 01:50:20;;;;;;;2.50;2.00;;;;;;;18.82;72.17;99673.88;5094633;28;20032;-77
2023/06/30 01:52:46;;;;;;;8.07;2.30;;;;;;;18.69;72.25;99662.94;5072481;28;20119;-77
2023/06/30 01:55:12;;;;;;;3.88;2.35;;;;;;;18.96;71.73;99667.88;5092724;28;20464;-77
2023/06/30 01:57:37;;;;;;;2.45;1.38;;;;;;;18.93;71.77;99657.34;5091117;28;20069;-77
2023/06/30 02:00:05;;;;;;;4.72;1.98;;;;;;;18.87;71.89;99658.50;5109394;28;20118;-77
2023/06/30 02:02:31;;;;;;;2.25;1.88;;;;;;;18.86;72.38;99664.81;5108383;28;20047;-77
2023/06/30 02:04:56;;;;;;;2.80;1.95;;;;;;;18.74;71.92;99666.25;5109462;28;20118;-77
2023/06/30 02:07:23;;;;;;;8.18;1.48;;;;;;;18.76;71.06;99677.72;5109350;28;20107;-77
2023/06/30 02:09:49;;;;;;;2.45;1.33;;;;;;;18.50;71.53;99656.75;5109752;28;20036;-77
2023/06/30 02:12:15;;;;;;;3.15;1.95;;;;;;;18.65;71.89;99679.19;5100475;28;20043;-77
2023/06/30 02:14:40;;;;;;;2.63;1.67;;;;;;;18.59;71.92;99680.34;5090852;28;20536;-78
2023/06/30 02:17:08;;;;;;;1.90;0.95;;;;;;;18.58;72.11;99676.81;5098449;28;20084;-78
2023/06/30 02:19:34;;;;;;;3.05;1.75;;;;;;;18.61;72.70;99681.13;5113558;28;20027;-78
2023/06/30 02:22:00;;;;;;;2.97;1.85;;;;;;;18.60;73.36;99679.41;5100824;28;20043;-78
2023/06/30 02:24:25;;;;;;;2.78;2.17;;;;;;;18.35;73.92;99659.22;5093784;28;20032;-78
2023/06/30 02:26:51;;;;;;;4.28;1.90;;;;;;;18.37;74.85;99677.84;5094650;28;20105;-78
2023/06/30 02:29:16;;;;;;;3.78;2.67;;;;;;;18.27;74.72;99658.69;5113693;28;20058;-78
2023/06/30 02:31:42;;;;;;;9.13;3.17;;;;;;;18.31;74.71;99654.97;5109330;28;20066;-78
2023/06/30 02:34:07;;;;;;;3.05;2.00;;;;;;;18.35;74.26;99655.66;5113431;28;20028;-79
2023/06/30 02:36:32;;;;;;;3.72;1.98;;;;;;;18.59;73.85;99685.69;5114303;28;20412;-78
2023/06/30 02:38:58;;;;;;;4.75;2.47;;;;;;;18.66;73.41;99679.13;5114138;28;20039;-78
2023/06/30 02:41:23;;;;;;;6.05;3.80;;;;;;;18.30;73.93;99637.19;5114330;28;20035;-78
2023/06/30 02:43:49;;;;;;;3.35;2.55;;;;;;;18.48;73.42;99663.97;5111833;28;20073;-78
2023/06/30 02:46:14;;;;;;;3.33;1.92;;;;;;;18.45;74.16;99674.81;5096211;28;20027;-78
2023/06/30 02:48:40;;;;;;;4.03;2.70;;;;;;;18.42;73.13;99683.81;5107647;28;20513;-79
2023/06/30 02:51:05;;;;;;;2.75;1.92;;;;;;;18.29;73.55;99696.91;5095511;28;20032;-78
2023/06/30 02:53:31;;;;;;;4.03;2.00;;;;;;;18.35;72.35;99699.28;5102819;28;20031;-78
2023/06/30 02:55:56;;;;;;;5.03;2.40;;;;;;;18.06;72.98;99663.28;5112159;28;20038;-78
2023/06/30 02:58:22;;;;;;;3.22;2.15;;;;;;;18.06;72.44;99680.13;5103531;28;20028;-78
2023/06/30 03:00:49;;;;;;;5.47;4.10;;;;;;;17.97;73.16;99683.22;5109735;28;20024;-78
2023/06/30 03:03:14;;;;;;;4.63;2.65;;;;;;;18.13;73.14;99706.53;5112439;28;20036;-77
2023/06/30 03:05:40;;;;;;;2.83;2.42;;;;;;;18.22;73.35;99719.47;5125837;28;20103;-77
2023/06/30 03:08:05;;;;;;;3.17;2.25;;;;;;;17.89;75.03;99707.59;5123669;28;20024;-76
2023/06/30 03:10:31;;;;;;;3.22;1.67;;;;;;;17.92;74.51;99665.69;5119686;28;20058;-76
2023/06/30 03:12:56;;;;;;;4.75;3.53;;;;;;;17.96;74.42;99678.81;5101237;28;20028;-77
2023/06/30 03:15:22;;;;;;;3.85;3.03;;;;;;;18.13;74.29;99674.50;5099283;28;20057;-78
2023/06/30 03:17:47;;;;;;;3.38;2.30;;;;;;;18.29;74.16;99680.88;5098200;28;20047;-76
2023/06/30 03:20:13;;;;;;;3.63;2.75;;;;;;;18.41;74.04;99709.69;5091927;28;20031;-78
2023/06/30 03:22:39;;;;;;;4.93;2.90;;;;;;;18.44;74.40;99697.97;5091539;28;20075;-77
2023/06/30 03:25:06;;;;;;;3.20;2.30;;;;;;;18.29;74.65;99671.97;5091488;28;20117;-79
2023/06/30 03:27:31;;;;;;;4.28;2.85;;;;;;;18.38;74.25;99675.09;5098920;28;20067;-76
2023/06/30 03:29:57;;;;;;;4.38;2.65;;;;;;;18.54;73.93;99672.56;5102724;28;20082;-77
2023/06/30 03:32:22;;;;;;;9.48;1.70;;;;;;;18.61;73.53;99679.34;5107764;28;20035;-77
2023/06/30 03:34:48;;;;;;;5.57;3.17;;;;;;;18.76;72.87;99692.88;5093368;28;20039;-77
2023/06/30 03:37:14;;;;;;;3.80;2.13;;;;;;;18.83;72.71;99690.75;5097289;28;20059;-77
2023/06/30 03:39:40;;;;;;;3.72;1.92;;;;;;;18.88;73.06;99695.00;5092383;28;20039;-77
2023/06/30 03:42:06;;;;;;;4.72;2.55;;;;;;;18.88;72.05;99673.59;5076843;28;20036;-80
2023/06/30 03:44:31;;;;;;;4.35;2.60;;;;;;;18.98;71.36;99684.69;5100239;28;20056;-77
2023/06/30 03:46:57;;;;;;;4.65;3.10;;;;;;;18.86;71.45;99663.94;5091104;28;20418;-76
2023/06/30 03:49:22;;;;;;;1.98;1.77;;;;;;;18.85;71.24;99659.53;5095900;28;20030;-79
2023/06/30 03:51:48;;;;;;;4.22;2.88;;;;;;;18.94;71.36;99673.31;5112283;28;20027;-78
2023/06/30 03:54:13;;;;;;;3.47;3.17;;;;;;;18.70;71.53;99642.41;5111381;28;20108;-78
2023/06/30 03:56:38;;;;;;;4.05;2.40;;;;;;;18.94;72.57;99683.13;5110465;28;20051;-78
2023/06/30 03:59:05;;;;;;;4.60;2.70;;;;;;;18.67;72.96;99678.16;5104550;28;20028;-78
2023/06/30 04:01:33;;;;;;;4.97;2.40;;;;;;;18.82;73.31;99660.53;5090687;28;20034;-78
2023/06/30 04:03:59;;;;;;;2.22;1.70;;;;;;;19.19;72.58;99693.44;5073305;28;20023;-80
2023/06/30 04:06:25;;;;;;;4.82;2.50;;;;;;;19.25;70.28;99678.91;5092082;27;20409;-77
2023/06/30 04:08:50;;;;;;;3.45;2.35;;;;;;;19.35;70.16;99682.81;5093279;28;20428;-78
2023/06/30 04:11:15;;;;;;;3.55;2.38;;;;;;;19.38;70.04;99663.94;5101913;27;20080;-78
2023/06/30 04:13:41;;;;;;;2.85;2.08;;;;;;;19.64;70.01;99675.09;5094364;28;20076;-78
2023/06/30 04:16:06;;;;;;;5.30;2.28;;;;;;;19.81;69.60;99691.16;5096746;28;20028;-79
2023/06/30 04:18:32;;;;;;;4.75;2.17;;;;;;;19.81;69.33;99675.09;5086076;28;20039;-79
2023/06/30 04:20:58;;;;;;;5.80;2.67;;;;;;;19.50;68.16;99668.66;5102835;28;20052;-78
2023/06/30 04:23:23;;;;;;;4.35;3.08;;;;;;;19.80;67.47;99699.25;5105202;28;20027;-81
2023/06/30 04:25:50;;;;;;;4.82;2.65;;;;;;;20.02;67.40;99685.63;5096722;28;20046;-80
2023/06/30 04:28:15;;;;;;;3.42;2.50;;;;;;;19.97;66.93;99660.88;5097929;28;20043;-80
2023/06/30 04:30:41;;;;;;;4.68;2.80;;;;;;;20.19;65.68;99690.06;5090452;28;20028;-80
2023/06/30 04:33:06;;;;;;;4.38;2.95;;;;;;;20.20;65.54;99698.00;5091103;28;20550;-81
2023/06/30 04:35:32;;;;;;;5.28;2.60;;;;;;;19.90;66.56;99700.50;5090537;28;20024;-80
2023/06/30 04:37:57;;;;;;;3.17;2.30;;;;;;;20.24;65.43;99668.38;5091914;28;20031;-80
2023/06/30 04:40:23;;;;;;;5.35;2.35;;;;;;;20.43;64.72;99670.88;5086594;28;20044;-80
2023/06/30 04:42:48;;;;;;;4.10;3.00;;;;;;;20.85;64.29;99690.84;5110297;28;20050;-80
2023/06/30 04:45:14;;;;;;;3.95;2.10;;;;;;;21.04;63.53;99704.06;5109208;28;20047;-80
2023/06/30 04:47:39;;;;;;;3.53;2.53;;;;;;;20.75;63.83;99694.06;5111024;28;20035;-79
2023/06/30 04:50:05;;;;;;;3.72;2.35;;;;;;;20.95;62.40;99681.31;5110512;28;20031;-80
2023/06/30 04:52:31;;;;;;;2.88;1.92;;;;;;;20.61;63.40;99690.41;5111069;28;20473;-82
2023/06/30 04:54:57;;;;;;;3.60;1.83;;;;;;;20.80;63.68;99699.16;5109202;28;20042;-80
2023/06/30 04:57:23;;;;;;;4.40;2.50;;;;;;;20.60;64.73;99694.91;5111011;28;20401;-80
2023/06/30 04:59:51;;;;;;;2.53;1.88;;;;;;;20.93;63.91;99699.31;5097326;28;20034;-79
2023/06/30 05:02:18;;;;;;;3.78;2.38;;;;;;;20.84;63.30;99681.94;5110993;28;20489;-80
2023/06/30 05:04:44;;;;;;;2.97;2.30;;;;;;;21.19;63.31;99704.97;5104440;28;20059;-79
2023/06/30 05:07:10;;;;;;;3.70;2.70;;;;;;;20.90;64.56;99683.41;5110541;28;20036;-81
2023/06/30 05:09:35;;;;;;;2.47;2.05;;;;;;;21.52;63.07;99679.78;5109640;28;20040;-80
2023/06/30 05:12:01;;;;;;;6.05;3.00;;;;;;;21.75;62.23;99679.25;5110712;28;20110;-82
2023/06/30 05:14:26;;;;;;;3.00;1.95;;;;;;;21.57;59.54;99704.53;5110723;28;20050;-82
2023/06/30 05:16:52;;;;;;;5.93;2.60;;;;;;;21.73;60.86;99683.00;5110783;28;20028;-83
2023/06/30 05:19:17;;;;;;;4.05;2.80;;;;;;;21.84;61.68;99706.50;5095835;28;20042;-84
2023/06/30 05:21:43;;;;;;;5.90;2.83;;;;;;;21.85;61.93;99659.91;5092437;27;20063;-81
2023/06/30 05:24:08;;;;;;;5.03;3.65;;;;;;;22.03;62.23;99677.53;5108750;28;20032;-82
2023/06/30 05:26:33;;;;;;;4.68;3.20;;;;;;;22.49;60.47;99684.50;5095972;28;20503;-81
2023/06/30 05:28:59;;;;;;;11.57;2.28;;;;;;;22.60;60.56;99711.56;5106345;28;20028;-81
2023/06/30 05:31:25;;;;;;;5.55;3.40;;;;;;;23.00;60.38;99711.66;5110079;28;20079;-82
2023/06/30 05:33:50;;;;;;;9.65;3.25;;;;;;;23.35;58.34;99694.13;5110484;28;20069;-82
2023/06/30 05:36:16;;;;;;;4.55;3.08;;;;;;;23.64;57.68;99696.66;5091702;28;20441;-83
2023/06/30 05:38:41;;;;;;;2.95;2.30;;;;;;;23.37;57.90;99711.00;5093907;28;20425;-83
2023/06/30 05:41:07;;;;;;;5.38;3.58;;;;;;;23.21;58.12;99668.16;5110649;28;20023;-82
2023/06/30 05:43:32;;;;;;;5.15;2.97;;;;;;;23.75;57.43;99704.84;5094465;28;20028;-83
2023/06/30 05:45:57;;;;;;;4.38;3.38;;;;;;;23.98;56.99;99687.09;5097967;28;20082;-82
2023/06/30 05:48:23;;;;;;;5.05;3.08;;;;;;;23.90;58.69;99684.09;5097758;28;20027;-82
2023/06/30 05:50:48;;;;;;;3.72;2.10;;;;;;;23.45;56.70;99680.88;5094122;28;20054;-83
2023/06/30 05:53:14;;;;;;;3.67;2.50;;;;;;;24.02;55.19;99712.84;5104171;27;20127;-83
2023/06/30 05:55:39;;;;;;;4.20;2.53;;;;;;;24.03;52.50;99668.75;5114077;28;20036;-82
2023/06/30 05:58:05;;;;;;;5.90;2.95;;;;;;;24.35;52.41;99683.59;5099929;28;20028;-81
2023/06/30 06:00:30;;;;;;;3.58;1.92;;;;;;;24.29;53.59;99699.22;5101430;28;20027;-81
2023/06/30 06:02:55;;;;;;;6.03;2.58;;;;;;;24.33;52.18;99690.91;5113313;28;20070;-82
2023/06/30 06:05:21;;;;;;;4.35;2.55;;;;;;;24.59;53.64;99689.03;5112621;28;20080;-82
2023/06/30 06:07:48;;;;;;;7.75;2.35;;;;;;;25.02;52.50;99684.03;5109025;27;20584;-82
2023/06/30 06:10:14;;;;;;;5.15;2.42;;;;;;;25.31;50.95;99697.16;5093012;28;20201;-82
2023/06/30 06:12:39;;;;;;;3.35;2.70;;;;;;;25.78;48.99;99688.19;5092945;28;20552;-82
2023/06/30 06:15:09;;;;;;;5.93;3.78;;;;;;;25.85;48.63;99687.59;5103992;28;20027;-81
2023/06/30 06:17:34;;;;;;;4.47;2.60;;;;;;;24.87;49.52;99673.50;5109467;27;20032;-82
2023/06/30 06:20:00;;;;;;;5.43;3.05;;;;;;;25.02;51.83;99702.03;5098756;27;20034;-82
2023/06/30 06:22:25;;;;;;;6.70;2.42;;;;;;;25.30;49.20;99670.28;5096346;28;20030;-83
2023/06/30 06:24:51;;;;;;;4.40;2.58;;;;;;;25.45;49.26;99679.91;5096211;28;20028;-82
2023/06/30 06:27:16;;;;;;;3.33;1.98;;;;;;;25.87;48.99;99685.63;5096638;28;20908;-83
2023/06/30 06:29:41;;;;;;;8.68;2.92;;;;;;;26.16;48.20;99652.75;5092204;28;20465;-83
2023/06/30 06:32:07;;;;;;;2.83;2.30;;;;;;;26.52;46.30;99685.00;5094388;28;20167;-84
2023/06/30 06:34:33;;;;;;;8.27;3.03;;;;;;;26.39;49.75;99696.84;5070791;28;20039;-83
2023/06/30 06:37:00;;;;;;;3.60;2.72;;;;;;;26.67;46.91;99674.81;5093869;28;20039;-82
2023/06/30 06:39:25;;;;;;;4.53;2.25;;;;;;;26.35;47.16;99675.56;5095621;27;20120;-81
2023/06/30 06:41:51;;;;;;;2.90;2.08;;;;;;;26.90;46.96;99654.81;5090948;28;20422;-83
2023/06/30 06:44:17;;;;;;;4.25;2.55;;;;;;;27.59;44.20;99666.19;5097439;28;20086;-83
2023/06/30 06:46:43;;;;;;;4.30;1.92;;;;;;;27.45;45.74;99665.56;5089407;28;20023;-81
2023/06/30 06:49:09;;;;;;;2.90;1.75;;;;;;;27.79;44.34;99668.03;5091132;28;20131;-81
2023/06/30 06:51:34;;;;;;;2.92;1.65;;;;;;;28.35;42.21;99685.72;5092037;28;21280;-79
2023/06/30 06:53:59;;;;;;;3.92;2.50;;;;;;;28.64;41.87;99662.38;5095167;28;20035;-81
2023/06/30 06:56:25;;;;;;;3.35;1.80;;;;;;;27.98;40.84;99661.88;5099713;28;20073;-82
2023/06/30 06:58:50;;;;;;;3.25;2.80;;;;;;;28.60;42.51;99671.81;5076688;28;20043;-82
2023/06/30 07:01:16;;;;;;;2.30;1.95;;;;;;;28.62;40.03;99661.69;5088383;28;20085;-83
2023/06/30 07:03:41;;;;;;;2.92;1.58;;;;;;;28.85;39.05;99657.69;5086311;28;20047;-84
2023/06/30 07:06:07;;;;;;;7.47;1.85;;;;;;;29.37;39.49;99679.19;5094157;28;20525;-82
2023/06/30 07:08:35;;;;;;;8.55;2.00;;;;;;;29.43;38.51;99647.88;5089464;28;20039;-82
2023/06/30 07:11:01;;;;;;;2.65;1.85;;;;;;;29.66;37.48;99648.41;5092725;28;20024;-82
2023/06/30 07:13:27;;;;;;;2.50;1.35;;;;;;;29.41;38.12;99661.59;5086588;28;20020;-83
2023/06/30 07:15:53;;;;;;;3.28;2.17;;;;;;;29.48;37.61;99664.59;5087802;28;20081;-81
2023/06/30 07:18:20;;;;;;;2.58;1.58;;;;;;;28.99;37.71;99663.72;5085130;28;20040;-81
2023/06/30 07:20:49;;;;;;;3.35;1.90;;;;;;;29.03;38.79;99633.44;5093703;28;20071;-82
2023/06/30 07:23:15;;;;;;;2.70;1.30;;;;;;;29.58;36.71;99642.81;5086295;28;20427;-82
2023/06/30 07:25:41;;;;;;;3.45;1.70;;;;;;;29.54;36.55;99635.97;5092487;28;20023;-83
2023/06/30 07:28:06;;;;;;;2.15;1.40;;;;;;;29.31;38.26;99644.44;5088579;28;20024;-83
2023/06/30 07:30:32;;;;;;;1.73;1.20;;;;;;;29.56;36.06;99661.97;5092119;28;20506;-84
2023/06/30 07:32:57;;;;;;;2.25;1.25;;;;;;;29.62;36.14;99641.53;5092389;28;20474;-82
2023/06/30 07:35:24;;;;;;;5.22;2.22;;;;;;;29.48;35.04;99633.84;5088425;28;20456;-83
2023/06/30 07:37:50;;;;;;;2.97;1.67;;;;;;;29.63;35.78;99663.13;5092550;28;21759;-83
2023/06/30 07:40:17;;;;;;;1.63;1.05;;;;;;;30.01;33.53;99619.66;5094537;28;20035;-83
2023/06/30 07:42:46;;;;;;;1.17;1.08;;;;;;;30.48;32.72;99656.84;5070470;28;20036;-83
2023/06/30 07:45:16;;;;;;;2.85;1.60;;;;;;;30.16;33.46;99637.19;5050486;28;1206581;-82
2023/06/30 07:47:43;;;;;;;1.33;1.10;;;;;;;29.77;34.42;99636.50;5091243;27;20035;-83
2023/06/30 07:50:11;;;;;;;2.75;1.35;;;;;;;29.73;34.95;99640.50;5089641;28;20106;-84
2023/06/30 07:52:39;;;;;;;1.17;1.08;;;;;;;29.49;35.30;99639.13;5088236;28;20030;-83
2023/06/30 07:55:05;;;;;;;2.90;1.50;;;;;;;30.12;32.56;99652.13;5088771;27;20028;-84
2023/06/30 07:57:30;;;;;;;4.15;1.60;;;;;;;30.20;37.84;99664.09;5093918;28;20107;-85
2023/06/30 07:59:56;;;;;;;8.98;1.40;;;;;;;30.20;33.51;99651.38;5089164;28;20106;-85
2023/06/30 08:02:22;;;;;;;2.22;1.27;;;;;;;30.02;34.73;99629.53;5091175;28;20039;-83
2023/06/30 08:04:47;;;;;;;2.58;1.70;;;;;;;30.28;34.36;99646.03;5091786;28;20035;-83
2023/06/30 08:07:13;;;;;;;1.70;1.17;;;;;;;30.20;35.94;99645.06;5092208;28;20126;-83
2023/06/30 08:09:38;;;;;;;3.33;2.28;;;;;;;31.00;32.53;99604.47;5089608;27;20036;-83
2023/06/30 08:12:04;;;;;;;1.90;1.40;;;;;;;31.36;32.11;99618.88;5091533;28;20024;-86
2023/06/30 08:14:30;;;;;;;0.90;0.85;;;;;;;30.87;30.35;99602.09;5088774;28;20046;-83
2023/06/30 08:16:55;;;;;;;1.88;1.00;;;;;;;31.16;30.50;99636.44;5096448;28;20035;-84
2023/06/30 08:19:21;;;;;;;1.23;1.10;;;;;;;30.10;31.74;99610.59;5089046;28;20570;-83
2023/06/30 08:21:47;;;;;;;1.58;1.15;;;;;;;29.83;33.79;99625.06;5091925;28;20036;-83
2023/06/30 08:24:12;;;;;;;1.58;0.93;;;;;;;30.28;32.09;99609.81;5090668;28;21623;-84
2023/06/30 08:26:38;;;;;;;2.25;1.23;;;;;;;30.66;32.69;99629.63;5093671;28;20531;-84
2023/06/30 08:29:03;;;;;;;1.85;1.17;;;;;;;30.08;31.31;99619.94;5091530;28;20043;-83
2023/06/30 08:31:30;;;;;;;1.00;0.80;;;;;;;30.41;31.43;99614.91;5091930;28;20034;-83
2023/06/30 08:33:56;;;;;;;1.50;1.23;;;;;;;30.60;30.59;99616.63;5092152;28;20040;-82
2023/06/30 08:36:23;;;;;;;0.98;0.90;;;;;;;31.14;30.15;99616.66;5093494;28;20032;-83
2023/06/30 08:38:48;;;;;;;1.90;1.20;;;;;;;31.12;29.87;99621.41;5093604;28;20444;-82
2023/06/30 08:41:15;;;;;;;1.40;1.02;;;;;;;30.98;29.47;99601.03;5090142;28;20020;-85
2023/06/30 08:43:41;;;;;;;2.55;1.35;;;;;;;31.12;29.87;99583.28;5073297;28;20414;-84
2023/06/30 08:46:07;;;;;;;1.85;0.90;;;;;;;31.13;30.34;99604.91;5090603;28;20055;-82
2023/06/30 08:48:33;;;;;;;0.90;0.80;;;;;;;31.10;32.06;99609.84;5071860;28;21300;-83
2023/06/30 08:50:59;;;;;;;2.58;1.52;;;;;;;31.44;31.58;99599.00;5093255;28;20164;-84
2023/06/30 08:53:27;;;;;;;1.70;1.15;;;;;;;31.42;29.21;99595.59;5090108;28;20096;-83
2023/06/30 08:55:56;;;;;;;1.10;0.77;;;;;;;31.04;30.90;99579.47;5091939;28;20031;-83
2023/06/30 08:58:22;;;;;;;3.70;0.95;;;;;;;31.43;33.09;99610.91;5085884;28;20062;-83
2023/06/30 09:00:47;;;;;;;1.15;0.77;;;;;;;31.22;32.38;99584.91;5089134;28;20050;-82
2023/06/30 09:03:15;;;;;;;1.48;1.10;;;;;;;31.45;31.58;99576.22;5091551;28;20101;-83
2023/06/30 09:05:42;;;;;;;0.70;0.70;;;;;;;31.45;28.16;99570.75;5099461;28;20024;-81
2023/06/30 09:08:19;;;;;;;2.47;0.95;;;;;;;32.22;28.41;99584.44;5100814;28;20119;-82
2023/06/30 09:10:47;;;;;;;2.60;0.95;;;;;;;31.07;28.36;99581.03;5095510;28;20031;-82
2023/06/30 09:13:14;;;;;;;1.52;0.95;;;;;;;31.62;28.57;99571.72;5110031;28;20028;-82
2023/06/30 09:15:40;;;;;;;1.65;0.93;;;;;;;31.55;29.21;99557.88;5110247;28;20028;-82
2023/06/30 09:18:06;;;;;;;2.10;1.33;;;;;;;31.94;27.87;99587.38;5105998;28;20028;-83
2023/06/30 09:20:32;;;;;;;1.98;1.40;;;;;;;31.39;28.11;99545.00;5091490;28;20028;-82
2023/06/30 09:23:01;;;;;;;0.98;0.88;;;;;;;31.51;28.80;99586.47;5093712;28;20081;-82
2023/06/30 09:25:26;;;;;;;1.65;1.10;;;;;;;31.45;28.89;99595.28;5092398;28;20102;-83
2023/06/30 09:27:55;;;;;;;1.42;1.10;;;;;;;31.16;28.61;99552.84;5093820;28;20224;-82
2023/06/30 09:30:38;;;;;;;2.85;1.77;;;;;;;31.39;26.94;99552.31;5096499;28;20024;-86
2023/06/30 09:33:05;;;;;;;1.70;1.20;;;;;;;31.71;27.49;99550.81;5074604;28;20046;-86
2023/06/30 09:35:38;;;;;;;4.93;1.42;;;;;;;32.12;27.94;99591.94;5077039;28;20028;-87
2023/06/30 09:38:08;;;;;;;1.58;0.68;;;;;;;31.96;28.18;99535.38;5094531;28;20102;-88
2023/06/30 09:40:33;;;;;;;0.70;0.70;;;;;;;31.49;27.64;99535.84;5090716;28;20024;-87
2023/06/30 09:42:59;;;;;;;1.23;1.00;;;;;;;31.26;28.59;99520.03;5088057;28;20080;-87
2023/06/30 09:45:24;;;;;;;2.33;1.67;;;;;;;31.92;26.43;99536.75;5090465;28;20040;-89
2023/06/30 09:47:53;;;;;;;1.75;1.20;;;;;;;31.86;26.25;99526.50;5087815;28;20182;-88
2023/06/30 09:50:27;;;;;;;0.82;0.73;;;;;;;31.64;28.90;99533.38;5090306;28;20104;-89
2023/06/30 09:52:53;;;;;;;1.98;1.20;;;;;;;32.27;28.40;99543.88;5091515;28;20024;-89
2023/06/30 09:55:18;;;;;;;2.75;1.02;;;;;;;32.51;28.82;99555.00;5092206;28;20031;-89
2023/06/30 09:57:45;;;;;;;3.22;1.23;;;;;;;32.27;28.52;99540.28;5087919;28;20092;-87
2023/06/30 10:00:12;;;;;;;0.85;0.60;;;;;;;32.05;26.69;99523.47;5086824;28;20111;-88
2023/06/30 10:02:40;;;;;;;4.30;2.38;;;;;;;32.19;27.45;99530.19;5086119;28;20765;-87
2023/06/30 10:05:06;;;;;;;7.05;1.30;;;;;;;32.13;26.96;99544.50;5090394;28;20032;-90
2023/06/30 10:07:32;;;;;;;1.27;0.80;;;;;;;32.14;26.84;99546.22;5087218;28;20042;-87
2023/06/30 10:10:00;;;;;;;2.30;0.73;;;;;;;31.95;27.46;99512.72;5091033;28;20020;-86
2023/06/30 10:12:26;;;;;;;3.08;0.88;;;;;;;32.19;26.12;99522.03;5086499;28;20513;-87
2023/06/30 10:14:53;;;;;;;1.50;0.77;;;;;;;31.94;28.50;99512.91;5093428;28;20081;-87
2023/06/30 10:17:19;;;;;;;1.05;0.75;;;;;;;32.25;27.66;99518.63;5089778;28;20172;-87
2023/06/30 10:19:45;;;;;;;2.03;1.17;;;;;;;32.08;27.76;99530.50;5072293;28;20024;-86
2023/06/30 10:22:11;;;;;;;4.00;1.25;;;;;;;31.68;28.03;99500.19;5087986;28;20410;-87
2023/06/30 10:24:39;;;;;;;1.38;1.08;;;;;;;31.69;28.77;99501.06;5086896;28;20125;-87
2023/06/30 10:27:09;;;;;;;0.70;0.60;;;;;;;31.97;26.51;99511.72;5086523;28;20024;-88
2023/06/30 10:29:35;;;;;;;0.95;0.50;;;;;;;32.42;27.16;99494.09;5088254;28;20028;-88
2023/06/30 10:32:02;;;;;;;1.95;1.02;;;;;;;32.38;27.02;99471.75;5053752;28;20480;-88
2023/06/30 10:34:29;;;;;;;1.73;0.80;;;;;;;32.76;28.02;99484.91;5081528;28;20052;-88
2023/06/30 10:36:55;;;;;;;1.08;0.98;;;;;;;32.48;27.76;99466.13;5090426;28;20043;-88
2023/06/30 10:39:21;;;;;;;1.50;0.90;;;;;;;32.87;28.75;99505.56;5077016;28;20401;-87
2023/06/30 10:41:49;;;;;;;1.45;0.68;;;;;;;32.33;27.93;99451.44;5092123;28;20031;-87
2023/06/30 10:44:15;;;;;;;1.33;1.00;;;;;;;32.52;27.20;99475.69;5093857;28;20058;-87
2023/06/30 10:46:53;;;;;;;1.92;0.85;;;;;;;31.91;28.37;99472.31;5073973;28;20437;-87
2023/06/30 10:49:19;;;;;;;1.42;0.77;;;;;;;31.74;27.77;99466.81;5082944;28;20030;-88
2023/06/30 10:51:49;;;;;;;2.10;0.60;;;;;;;32.26;29.09;99487.59;5094107;28;20078;-87
2023/06/30 10:54:22;;;;;;;1.50;0.65;;;;;;;32.17;27.29;99468.66;5076317;28;20107;-85
2023/06/30 10:56:49;;;;;;;2.28;1.23;;;;;;;31.76;26.78;99456.59;5093306;28;20117;-87
2023/06/30 10:59:21;;;;;;;0.73;0.60;;;;;;;32.06;26.77;99454.28;5094995;28;20103;-87
2023/06/30 11:02:12;;;;;;;2.72;1.83;;;;;;;32.59;27.88;99473.13;5090630;28;20036;-87
2023/06/30 11:04:39;;;;;;;1.27;0.80;;;;;;;32.01;26.37;99453.06;5095526;28;20051;-88
2023/06/30 11:07:06;;;;;;;2.08;1.13;;;;;;;31.53;27.48;99453.59;5092383;28;20035;-85
2023/06/30 11:09:47;;;;;;;1.67;0.70;;;;;;;31.50;26.63;99475.72;5086811;28;20454;-86
2023/06/30 11:12:19;;;;;;;0.95;0.52;;;;;;;31.51;29.30;99441.16;5095389;27;20040;-88
2023/06/30 11:14:55;;;;;;;1.92;0.75;;;;;;;31.56;28.16;99457.91;5059021;28;20112;-87
2023/06/30 11:17:22;;;;;;;0.68;0.50;;;;;;;31.70;28.62;99453.66;5071861;28;20024;-87
2023/06/30 11:20:06;;;;;;;1.10;0.80;;;;;;;32.28;27.63;99458.25;5091133;27;20020;-85
2023/06/30 11:22:32;;;;;;;1.27;1.02;;;;;;;32.35;27.33;99433.03;5087671;27;20040;-83
2023/06/30 11:24:57;;;;;;;1.90;0.65;;;;;;;32.35;27.34;99441.19;5095456;28;20350;-82
2023/06/30 11:27:30;;;;;;;1.85;0.93;;;;;;;32.40;25.91;99428.75;5092687;28;20113;-83
2023/06/30 11:29:58;;;;;;;3.78;1.23;;;;;;;32.59;27.11;99432.16;5070156;28;20074;-82
2023/06/30 11:32:29;;;;;;;1.55;0.40;;;;;;;32.61;27.20;99421.91;5088329;28;20405;-82